createdAt,value
2023-02-16T00:00:33.793Z,43.10
2023-02-16T00:03:01.255Z,43.12
2023-02-16T00:05:32.412Z,43.08
2023-02-16T00:07:59.673Z,43.69
2023-02-16T00:10:28.008Z,42.48
2023-02-16T00:13:13.684Z,43.07
2023-02-16T00:15:41.193Z,42.61
2023-02-16T00:18:18.567Z,42.36
2023-02-16T00:20:46.415Z,41.95
2023-02-16T00:23:13.584Z,42.03
2023-02-16T00:25:40.748Z,41.84
2023-02-16T00:28:18.652Z,42.31
2023-02-16T00:30:46.038Z,43.25
2023-02-16T00:33:15.624Z,43.31
2023-02-16T00:35:42.866Z,43.13
2023-02-16T00:38:10.081Z,43.06
2023-02-16T00:40:37.520Z,42.37
2023-02-16T00:43:06.572Z,43.15
2023-02-16T00:45:34.245Z,43.38
2023-02-16T00:48:01.685Z,42.88
2023-02-16T00:50:30.283Z,42.08
2023-02-16T00:52:58.595Z,42.62
2023-02-16T00:55:30.515Z,42.46
2023-02-16T00:58:06.003Z,42.67
2023-02-16T01:01:02.853Z,41.70
2023-02-16T01:03:30.129Z,41.20
2023-02-16T01:06:16.253Z,41.87
2023-02-16T01:09:02.396Z,42.30
2023-02-16T01:11:31.811Z,42.39
2023-02-16T01:13:59.000Z,42.74
2023-02-16T01:16:39.819Z,42.30
2023-02-16T01:19:07.332Z,42.41
2023-02-16T01:21:34.510Z,41.49
2023-02-16T01:24:01.892Z,42.07
2023-02-16T01:26:29.364Z,42.30
2023-02-16T01:28:56.501Z,41.80
2023-02-16T01:31:23.812Z,42.17
2023-02-16T01:33:51.387Z,41.67
2023-02-16T01:36:34.922Z,41.89
2023-02-16T01:39:02.354Z,42.22
2023-02-16T01:41:46.617Z,42.71
2023-02-16T01:44:29.420Z,42.67
2023-02-16T01:47:11.857Z,41.88
2023-02-16T01:49:39.306Z,41.48
2023-02-16T01:52:14.112Z,41.55
2023-02-16T01:54:41.457Z,41.79
2023-02-16T01:57:08.597Z,41.42
2023-02-16T01:59:38.785Z,41.53
2023-02-16T02:02:11.620Z,41.82
2023-02-16T02:05:10.351Z,41.64
2023-02-16T02:07:53.621Z,41.51
2023-02-16T02:10:26.779Z,43.51
2023-02-16T02:13:04.910Z,43.84
2023-02-16T02:15:32.518Z,43.62
2023-02-16T02:18:00.047Z,43.05
2023-02-16T02:20:49.976Z,42.78
2023-02-16T02:23:37.523Z,42.83
2023-02-16T02:26:21.408Z,43.09
2023-02-16T02:29:16.139Z,43.71
2023-02-16T02:31:52.643Z,43.53
2023-02-16T02:34:20.449Z,42.61
2023-02-16T02:36:51.988Z,42.24
2023-02-16T02:39:19.447Z,42.28
2023-02-16T02:42:05.926Z,42.37
2023-02-16T02:45:01.695Z,42.51
2023-02-16T02:47:42.500Z,42.89
2023-02-16T02:50:28.585Z,43.57
2023-02-16T02:52:56.344Z,44.18
2023-02-16T02:55:42.577Z,44.13
2023-02-16T02:58:28.792Z,43.39
2023-02-16T03:00:56.302Z,42.70
2023-02-16T03:03:25.248Z,43.42
2023-02-16T03:05:53.487Z,45.37
2023-02-16T03:08:22.782Z,44.22
2023-02-16T03:11:13.343Z,44.15
2023-02-16T03:13:42.523Z,44.50
2023-02-16T03:16:14.355Z,44.18
2023-02-16T03:19:00.654Z,43.66
2023-02-16T03:21:46.566Z,43.05
2023-02-16T03:24:34.301Z,43.51
2023-02-16T03:27:20.463Z,42.32
2023-02-16T03:29:49.543Z,43.08
2023-02-16T03:32:16.758Z,43.85
2023-02-16T03:34:43.957Z,43.55
2023-02-16T03:37:11.382Z,43.10
2023-02-16T03:39:57.241Z,42.96
2023-02-16T03:42:24.838Z,43.07
2023-02-16T03:44:52.040Z,43.20
2023-02-16T03:47:19.205Z,42.79
2023-02-16T03:49:46.626Z,42.77
2023-02-16T03:52:13.784Z,42.17
2023-02-16T03:54:40.980Z,41.28
2023-02-16T03:57:08.404Z,41.59
2023-02-16T03:59:35.592Z,42.10
2023-02-16T04:02:02.865Z,43.05
2023-02-16T04:04:30.402Z,43.58
2023-02-16T04:06:57.571Z,42.97
2023-02-16T04:09:24.759Z,42.16
2023-02-16T04:12:10.724Z,41.71
2023-02-16T04:14:37.873Z,41.83
2023-02-16T04:17:05.371Z,42.42
2023-02-16T04:19:32.505Z,42.62
2023-02-16T04:21:59.620Z,41.92
2023-02-16T04:24:27.227Z,41.76
2023-02-16T04:26:54.360Z,41.51
2023-02-16T04:29:24.002Z,40.88
2023-02-16T04:31:51.653Z,41.93
2023-02-16T04:34:18.830Z,42.73
2023-02-16T04:36:46.006Z,42.17
2023-02-16T04:39:13.443Z,42.47
2023-02-16T04:41:40.610Z,42.67
2023-02-16T04:44:07.734Z,42.89
2023-02-16T04:46:35.459Z,43.04
2023-02-16T04:49:03.568Z,43.42
2023-02-16T04:51:30.738Z,43.76
2023-02-16T04:53:58.201Z,43.75
2023-02-16T04:56:25.339Z,43.04
2023-02-16T04:58:52.516Z,43.43
2023-02-16T05:01:24.001Z,42.98
2023-02-16T05:03:51.213Z,42.20
2023-02-16T05:06:18.392Z,44.85
2023-02-16T05:08:45.920Z,43.56
2023-02-16T05:11:32.019Z,44.05
2023-02-16T05:14:18.122Z,43.43
2023-02-16T05:16:45.513Z,43.15
2023-02-16T05:19:12.962Z,43.22
2023-02-16T05:21:40.075Z,42.46
2023-02-16T05:24:08.693Z,42.96
2023-02-16T05:26:36.535Z,42.47
2023-02-16T05:29:04.025Z,42.49
2023-02-16T05:31:31.357Z,42.54
2023-02-16T05:33:58.815Z,42.22
2023-02-16T05:36:25.994Z,42.37
2023-02-16T05:38:53.166Z,41.98
2023-02-16T05:41:23.603Z,42.21
2023-02-16T05:43:54.688Z,43.48
2023-02-16T05:46:22.784Z,42.38
2023-02-16T05:48:50.121Z,42.24
2023-02-16T05:51:17.331Z,41.76
2023-02-16T05:53:44.876Z,42.28
2023-02-16T05:56:12.105Z,42.17
2023-02-16T05:58:39.418Z,41.94
2023-02-16T06:01:06.962Z,43.08
2023-02-16T06:03:35.936Z,42.94
2023-02-16T06:06:04.029Z,42.33
2023-02-16T06:08:31.508Z,42.64
2023-02-16T06:10:59.105Z,42.67
2023-02-16T06:13:26.414Z,42.54
2023-02-16T06:15:54.589Z,43.06
2023-02-16T06:18:22.372Z,41.46
2023-02-16T06:20:49.534Z,42.35
2023-02-16T06:23:16.696Z,43.69
2023-02-16T06:25:45.120Z,42.96
2023-02-16T06:28:12.337Z,41.53
2023-02-16T06:30:40.175Z,40.96
2023-02-16T06:33:07.872Z,41.36
2023-02-16T06:35:35.072Z,41.19
2023-02-16T06:38:02.211Z,41.17
2023-02-16T06:40:29.662Z,40.78
2023-02-16T06:42:56.916Z,40.83
2023-02-16T06:45:24.031Z,41.86
2023-02-16T06:47:51.504Z,42.34
2023-02-16T06:50:19.148Z,42.01
2023-02-16T06:52:46.267Z,41.81
2023-02-16T06:55:13.666Z,41.37
2023-02-16T06:57:40.871Z,41.56
2023-02-16T07:00:08.250Z,41.74
2023-02-16T07:02:35.935Z,41.79
2023-02-16T07:05:03.372Z,41.78
2023-02-16T07:07:31.290Z,41.46
2023-02-16T07:09:58.701Z,41.37
2023-02-16T07:12:25.846Z,41.75
2023-02-16T07:14:53.049Z,42.08
2023-02-16T07:17:20.486Z,41.94
2023-02-16T07:19:47.712Z,41.81
2023-02-16T07:22:15.248Z,41.10
2023-02-16T07:24:42.889Z,40.47
2023-02-16T07:27:10.041Z,39.80
2023-02-16T07:29:37.172Z,40.25
2023-02-16T07:32:04.775Z,40.27
2023-02-16T07:34:32.134Z,40.54
2023-02-16T07:36:59.284Z,40.77
2023-02-16T07:39:28.996Z,40.43
2023-02-16T07:41:56.176Z,40.47
2023-02-16T07:44:26.497Z,40.31
2023-02-16T07:46:53.691Z,42.15
2023-02-16T07:49:20.825Z,39.94
2023-02-16T07:51:48.228Z,38.82
2023-02-16T07:54:15.549Z,38.12
2023-02-16T07:56:42.685Z,37.04
2023-02-16T07:59:10.142Z,35.40
2023-02-16T08:01:37.553Z,33.52
2023-02-16T08:04:05.499Z,31.54
2023-02-16T08:06:34.265Z,31.19
2023-02-16T08:09:01.708Z,30.73
2023-02-16T08:11:29.193Z,31.48
2023-02-16T08:13:56.326Z,31.76
2023-02-16T08:16:25.025Z,32.32
2023-02-16T08:18:53.010Z,33.08
2023-02-16T08:21:21.812Z,34.10
2023-02-16T08:23:53.207Z,35.04
2023-02-16T08:26:23.398Z,34.52
2023-02-16T08:28:51.614Z,34.01
2023-02-16T08:31:19.845Z,34.25
2023-02-16T08:33:47.879Z,33.69
2023-02-16T08:36:19.075Z,30.97
2023-02-16T08:38:47.360Z,28.21
2023-02-16T08:41:14.917Z,27.67
2023-02-16T08:43:42.092Z,29.24
2023-02-16T08:46:09.510Z,30.39
2023-02-16T08:48:40.397Z,32.33
2023-02-16T08:51:07.623Z,32.39
2023-02-16T08:53:35.055Z,31.60
2023-02-16T08:56:03.949Z,31.59
2023-02-16T08:58:31.656Z,32.21
2023-02-16T09:00:58.881Z,31.80
2023-02-16T09:03:26.348Z,32.92
2023-02-16T09:05:53.538Z,32.45
2023-02-16T09:08:21.650Z,32.54
2023-02-16T09:10:49.107Z,33.27
2023-02-16T09:13:16.446Z,35.07
2023-02-16T09:15:43.820Z,34.86
2023-02-16T09:18:12.693Z,34.99
2023-02-16T09:20:41.293Z,35.88
2023-02-16T09:23:08.901Z,35.64
2023-02-16T09:25:37.042Z,34.99
2023-02-16T09:28:04.682Z,34.01
2023-02-16T09:30:32.056Z,33.80
2023-02-16T09:33:00.120Z,32.99
2023-02-16T09:35:27.340Z,32.63
2023-02-16T09:37:54.574Z,32.93
2023-02-16T09:40:22.139Z,32.65
2023-02-16T09:42:52.409Z,32.96
2023-02-16T09:45:20.490Z,32.38
2023-02-16T09:47:49.088Z,30.54
2023-02-16T09:50:38.172Z,29.81
2023-02-16T09:53:08.713Z,29.42
2023-02-16T09:55:41.841Z,29.95
2023-02-16T09:58:14.846Z,31.47
2023-02-16T10:00:52.099Z,31.10
2023-02-16T10:03:29.437Z,30.67
2023-02-16T10:05:58.509Z,30.86
2023-02-16T10:08:27.597Z,31.28
2023-02-16T10:11:03.467Z,31.00
2023-02-16T10:13:32.086Z,30.92
2023-02-16T10:15:59.243Z,31.05
2023-02-16T10:18:34.140Z,31.34
2023-02-16T10:21:02.648Z,31.88
2023-02-16T10:23:30.030Z,31.79
2023-02-16T10:26:15.789Z,31.81
2023-02-16T10:28:47.437Z,31.39
2023-02-16T10:31:30.172Z,31.02
2023-02-16T10:34:11.381Z,31.29
2023-02-16T10:36:38.551Z,31.55
2023-02-16T10:39:20.063Z,31.17
2023-02-16T10:41:49.273Z,31.29
2023-02-16T10:44:20.234Z,31.59
2023-02-16T10:46:49.504Z,31.06
2023-02-16T10:49:17.012Z,31.05
2023-02-16T10:51:47.786Z,31.09
2023-02-16T10:54:17.566Z,31.23
2023-02-16T10:56:52.470Z,31.31
2023-02-16T10:59:21.533Z,30.65
2023-02-16T11:01:53.960Z,30.00
2023-02-16T11:04:30.170Z,29.83
2023-02-16T11:07:11.235Z,30.05
2023-02-16T11:09:38.946Z,29.82
2023-02-16T11:12:25.782Z,29.90
2023-02-16T11:15:18.954Z,29.60
2023-02-16T11:17:53.042Z,31.26
2023-02-16T11:20:27.059Z,32.56
2023-02-16T11:22:54.774Z,31.43
2023-02-16T11:25:23.840Z,31.86
2023-02-16T11:27:51.261Z,32.05
2023-02-16T11:30:23.431Z,31.67
2023-02-16T11:32:50.675Z,32.19
2023-02-16T11:35:17.913Z,32.69
2023-02-16T11:37:45.700Z,32.71
2023-02-16T11:40:25.116Z,34.30
2023-02-16T11:42:53.828Z,34.88
2023-02-16T11:45:23.040Z,34.38
2023-02-16T11:47:54.135Z,35.22
2023-02-16T11:50:23.228Z,34.47
2023-02-16T11:52:51.691Z,34.61
2023-02-16T11:55:32.765Z,35.74
2023-02-16T11:58:21.315Z,35.13
2023-02-16T12:01:06.109Z,35.92
2023-02-16T12:03:44.786Z,36.33
2023-02-16T12:06:12.343Z,36.25
2023-02-16T12:08:58.715Z,36.23
2023-02-16T12:11:26.392Z,35.61
2023-02-16T12:14:12.589Z,35.70
2023-02-16T12:16:39.932Z,35.27
2023-02-16T12:19:42.754Z,34.72
2023-02-16T12:22:19.112Z,35.03
2023-02-16T12:24:48.104Z,36.44
2023-02-16T12:27:15.190Z,35.97
2023-02-16T12:29:45.197Z,36.68
2023-02-16T12:32:45.002Z,36.29
2023-02-16T12:35:12.775Z,35.89
2023-02-16T12:37:49.030Z,35.17
2023-02-16T12:40:19.156Z,35.30
2023-02-16T12:42:49.496Z,36.65
2023-02-16T12:45:19.127Z,36.48
2023-02-16T12:47:54.614Z,35.79
2023-02-16T12:50:22.756Z,36.41
2023-02-16T12:53:13.979Z,36.84
2023-02-16T12:55:51.045Z,36.69
2023-02-16T12:58:25.988Z,36.84
2023-02-16T13:00:56.296Z,37.13
2023-02-16T13:03:32.589Z,36.63
2023-02-16T13:06:18.487Z,36.65
2023-02-16T13:08:51.719Z,35.98
2023-02-16T13:11:39.151Z,36.67
2023-02-16T13:14:11.397Z,36.89
2023-02-16T13:16:38.609Z,37.48
2023-02-16T13:19:05.965Z,37.45
2023-02-16T13:21:50.506Z,38.38
2023-02-16T13:24:24.325Z,38.02
2023-02-16T13:27:04.249Z,37.78
2023-02-16T13:30:07.084Z,38.48
2023-02-16T13:32:41.294Z,38.32
2023-02-16T13:35:14.771Z,40.13
2023-02-16T13:37:42.332Z,40.88
2023-02-16T13:40:21.607Z,40.75
2023-02-16T13:43:01.897Z,39.72
2023-02-16T13:45:30.136Z,40.34
2023-02-16T13:47:57.687Z,39.90
2023-02-16T13:50:34.219Z,40.05
2023-02-16T13:53:31.286Z,40.14
2023-02-16T13:56:17.388Z,39.95
2023-02-16T13:58:44.876Z,40.15
2023-02-16T14:01:31.854Z,39.33
2023-02-16T14:03:59.861Z,40.14
2023-02-16T14:06:27.837Z,38.69
2023-02-16T14:09:13.702Z,40.22
2023-02-16T14:11:53.248Z,39.58
2023-02-16T14:14:34.343Z,39.29
2023-02-16T14:17:17.543Z,39.49
2023-02-16T14:19:57.372Z,39.79
2023-02-16T14:22:34.417Z,39.74
2023-02-16T14:25:02.456Z,40.23
2023-02-16T14:27:42.090Z,40.05
2023-02-16T14:30:20.011Z,40.14
2023-02-16T14:32:48.926Z,41.05
2023-02-16T14:35:18.524Z,40.64
2023-02-16T14:37:54.966Z,41.37
2023-02-16T14:40:34.470Z,40.42
2023-02-16T14:43:04.871Z,40.38
2023-02-16T14:45:51.715Z,40.28
2023-02-16T14:48:35.916Z,40.41
2023-02-16T14:51:22.270Z,41.11
2023-02-16T14:53:49.421Z,41.29
2023-02-16T14:56:35.722Z,41.36
2023-02-16T14:59:26.162Z,41.37
2023-02-16T15:01:53.658Z,41.56
2023-02-16T15:04:28.388Z,41.51
2023-02-16T15:06:56.551Z,41.20
2023-02-16T15:09:28.178Z,41.26
2023-02-16T15:12:14.917Z,41.08
2023-02-16T15:14:43.179Z,40.77
2023-02-16T15:17:10.588Z,41.30
2023-02-16T15:19:39.671Z,41.40
2023-02-16T15:22:14.816Z,41.31
2023-02-16T15:24:42.234Z,41.83
2023-02-16T15:27:19.412Z,42.01
2023-02-16T15:29:47.226Z,42.04
2023-02-16T15:32:15.718Z,42.10
2023-02-16T15:34:42.949Z,42.24
2023-02-16T15:37:22.691Z,42.25
2023-02-16T15:40:08.721Z,42.05
2023-02-16T15:42:37.405Z,42.05
2023-02-16T15:45:18.652Z,41.72
2023-02-16T15:47:47.109Z,41.61
2023-02-16T15:50:14.539Z,41.77
2023-02-16T15:52:41.786Z,42.15
2023-02-16T15:55:10.462Z,42.25
2023-02-16T15:57:38.417Z,42.09
2023-02-16T16:00:07.288Z,41.89
2023-02-16T16:02:40.389Z,42.52
2023-02-16T16:05:09.826Z,42.50
2023-02-16T16:07:39.787Z,42.27
2023-02-16T16:10:13.170Z,42.18
2023-02-16T16:12:40.612Z,42.42
2023-02-16T16:15:08.889Z,42.21
2023-02-16T16:17:37.665Z,42.11
2023-02-16T16:20:19.068Z,42.01
2023-02-16T16:22:46.231Z,41.82
2023-02-16T16:25:29.195Z,42.08
2023-02-16T16:27:56.826Z,42.03
2023-02-16T16:30:24.638Z,42.34
2023-02-16T16:33:05.580Z,42.18
2023-02-16T16:35:34.531Z,41.95
2023-02-16T16:38:02.003Z,41.75
2023-02-16T16:40:35.831Z,41.72
2023-02-16T16:43:03.288Z,41.53
2023-02-16T16:45:35.167Z,41.33
2023-02-16T16:48:08.211Z,41.77
2023-02-16T16:50:39.311Z,41.32
2023-02-16T16:53:48.264Z,41.31
2023-02-16T16:56:15.764Z,41.25
2023-02-16T16:58:43.374Z,41.46
2023-02-16T17:01:12.466Z,41.51
2023-02-16T17:03:39.626Z,41.36
2023-02-16T17:06:07.163Z,41.56
2023-02-16T17:08:34.582Z,41.47
2023-02-16T17:11:03.421Z,42.16
2023-02-16T17:13:33.542Z,42.26
2023-02-16T17:16:01.527Z,41.50
2023-02-16T17:18:28.822Z,41.17
2023-02-16T17:20:56.716Z,41.77
2023-02-16T17:23:23.934Z,42.35
2023-02-16T17:25:51.475Z,42.47
2023-02-16T17:28:19.790Z,42.47
2023-02-16T17:30:47.240Z,42.40
2023-02-16T17:33:14.622Z,42.56
2023-02-16T17:35:42.777Z,43.03
2023-02-16T17:38:11.079Z,43.28
2023-02-16T17:40:39.824Z,43.23
2023-02-16T17:43:10.779Z,43.07
2023-02-16T17:45:38.120Z,43.29
2023-02-16T17:48:05.635Z,42.73
2023-02-16T17:50:33.182Z,42.69
2023-02-16T17:53:00.713Z,43.23
2023-02-16T17:55:28.089Z,43.09
2023-02-16T17:57:58.074Z,42.53
2023-02-16T18:00:25.456Z,42.10
2023-02-16T18:02:52.929Z,42.57
2023-02-16T18:05:20.367Z,42.08
2023-02-16T18:07:47.775Z,42.23
2023-02-16T18:10:16.449Z,41.96
2023-02-16T18:12:43.908Z,42.49
2023-02-16T18:15:11.284Z,42.45
2023-02-16T18:17:39.010Z,42.58
2023-02-16T18:20:06.790Z,43.26
2023-02-16T18:22:34.206Z,43.44
2023-02-16T18:25:02.933Z,42.28
2023-02-16T18:27:30.377Z,42.47
2023-02-16T18:29:57.798Z,42.00
2023-02-16T18:32:25.515Z,42.18
2023-02-16T18:34:52.901Z,42.59
2023-02-16T18:37:20.096Z,41.90
2023-02-16T18:39:47.805Z,42.43
2023-02-16T18:42:15.398Z,42.68
2023-02-16T18:44:42.838Z,42.90
2023-02-16T18:47:10.507Z,43.04
2023-02-16T18:49:37.953Z,43.87
2023-02-16T18:52:05.529Z,44.45
2023-02-16T18:54:34.233Z,44.79
2023-02-16T18:57:01.626Z,44.79
2023-02-16T18:59:29.026Z,46.27
2023-02-16T19:01:57.122Z,46.68
2023-02-16T19:04:24.881Z,46.68
2023-02-16T19:06:52.143Z,46.52
2023-02-16T19:09:19.832Z,45.83
2023-02-16T19:11:47.460Z,45.47
2023-02-16T19:14:16.691Z,45.10
2023-02-16T19:16:45.838Z,45.40
2023-02-16T19:19:13.106Z,45.97
2023-02-16T19:21:40.580Z,45.95
2023-02-16T19:24:08.080Z,46.14
2023-02-16T19:26:35.481Z,46.01
2023-02-16T19:29:02.841Z,45.61
2023-02-16T19:31:30.959Z,45.92
2023-02-16T19:33:59.084Z,46.17
2023-02-16T19:36:27.074Z,46.13
2023-02-16T19:38:54.845Z,46.14
2023-02-16T19:41:27.629Z,45.59
2023-02-16T19:43:55.453Z,45.20
2023-02-16T19:46:23.046Z,45.14
2023-02-16T19:48:50.611Z,45.35
2023-02-16T19:51:18.258Z,45.41
2023-02-16T19:53:45.744Z,45.12
2023-02-16T19:56:15.060Z,44.69
2023-02-16T19:58:42.947Z,44.86
2023-02-16T20:01:11.518Z,44.62
2023-02-16T20:03:39.247Z,45.31
2023-02-16T20:06:13.833Z,45.30
2023-02-16T20:08:41.415Z,45.00
2023-02-16T20:11:08.655Z,45.08
2023-02-16T20:13:36.333Z,45.23
2023-02-16T20:16:07.697Z,45.24
2023-02-16T20:18:36.419Z,46.09
2023-02-16T20:21:05.559Z,45.46
2023-02-16T20:23:33.426Z,46.60
2023-02-16T20:26:03.992Z,46.28
2023-02-16T20:28:31.783Z,47.95
2023-02-16T20:30:59.186Z,46.66
2023-02-16T20:33:26.638Z,48.37
2023-02-16T20:35:54.518Z,48.18
2023-02-16T20:38:21.903Z,47.51
2023-02-16T20:40:49.350Z,47.87
2023-02-16T20:43:20.880Z,47.32
2023-02-16T20:45:48.228Z,47.34
2023-02-16T20:48:15.847Z,47.12
2023-02-16T20:50:43.372Z,46.82
2023-02-16T20:53:10.706Z,46.49
2023-02-16T20:55:38.155Z,46.51
2023-02-16T20:58:05.761Z,46.16
2023-02-16T21:00:33.023Z,45.94
2023-02-16T21:03:00.399Z,46.82
2023-02-16T21:05:28.067Z,46.75
2023-02-16T21:07:55.721Z,47.07
2023-02-16T21:10:23.457Z,46.85
2023-02-16T21:12:51.199Z,46.57
2023-02-16T21:15:18.327Z,45.94
2023-02-16T21:17:46.019Z,46.39
2023-02-16T21:20:13.656Z,45.95
2023-02-16T21:22:40.858Z,45.81
2023-02-16T21:25:08.905Z,46.01
2023-02-16T21:27:36.566Z,46.73
2023-02-16T21:30:04.527Z,47.19
2023-02-16T21:32:31.743Z,46.69
2023-02-16T21:34:59.901Z,47.02
2023-02-16T21:37:27.029Z,46.76
2023-02-16T21:40:13.062Z,47.57
2023-02-16T21:42:40.704Z,47.34
2023-02-16T21:45:14.152Z,47.15
2023-02-16T21:48:01.176Z,46.59
2023-02-16T21:50:28.695Z,46.05
2023-02-16T21:52:56.173Z,45.71
2023-02-16T21:55:42.220Z,45.50
2023-02-16T21:58:10.818Z,45.36
2023-02-16T22:00:38.277Z,46.25
2023-02-16T22:03:06.138Z,46.12
2023-02-16T22:05:34.334Z,45.82
2023-02-16T22:08:01.580Z,46.19
2023-02-16T22:10:29.580Z,45.66
2023-02-16T22:12:57.369Z,45.51
2023-02-16T22:15:26.054Z,45.82
2023-02-16T22:17:53.534Z,45.37
2023-02-16T22:20:20.905Z,45.61
2023-02-16T22:22:48.102Z,45.31
2023-02-16T22:25:15.615Z,45.65
2023-02-16T22:27:42.780Z,46.70
2023-02-16T22:30:10.932Z,46.33
2023-02-16T22:32:38.439Z,46.25
2023-02-16T22:35:05.763Z,46.24
2023-02-16T22:37:33.526Z,46.97
2023-02-16T22:40:00.988Z,46.37
2023-02-16T22:42:28.120Z,45.77
2023-02-16T22:44:55.308Z,46.02
2023-02-16T22:47:22.744Z,45.73
2023-02-16T22:49:49.904Z,46.08
2023-02-16T22:52:17.267Z,45.69
2023-02-16T22:54:44.790Z,45.54
2023-02-16T22:57:11.959Z,45.09
2023-02-16T22:59:39.131Z,45.74
2023-02-16T23:02:06.529Z,44.79
2023-02-16T23:04:33.660Z,44.63
2023-02-16T23:07:00.866Z,45.39
2023-02-16T23:09:28.296Z,45.44
2023-02-16T23:11:55.426Z,45.39
2023-02-16T23:14:22.631Z,44.78
2023-02-16T23:16:51.235Z,44.44
2023-02-16T23:19:20.554Z,44.83
2023-02-16T23:21:47.958Z,44.77
2023-02-16T23:24:17.036Z,45.35
2023-02-16T23:26:44.386Z,45.30
2023-02-16T23:29:11.635Z,45.12
2023-02-16T23:31:40.146Z,45.06
2023-02-16T23:34:07.441Z,45.47
2023-02-16T23:36:35.295Z,45.21
2023-02-16T23:39:04.212Z,45.49
2023-02-16T23:41:31.337Z,44.71
2023-02-16T23:44:00.879Z,44.22
2023-02-16T23:46:28.778Z,44.49
2023-02-16T23:48:56.093Z,44.40
2023-02-16T23:51:23.254Z,44.69
2023-02-16T23:53:50.646Z,44.87
2023-02-16T23:56:19.165Z,44.61
2023-02-16T23:58:46.407Z,44.77
